sensor_id;sensor_type;location;lat;lon;timestamp;P1;durP1;ratioP1;P2;durP2;ratioP2
73456;SDS011;61691;53.072;6.582;2023-04-09T00:00:16;64.10;;;36.70;;
73456;SDS011;61691;53.072;6.582;2023-04-09T00:02:42;56.45;;;36.78;;
73456;SDS011;61691;53.072;6.582;2023-04-09T00:05:09;52.67;;;35.25;;
73456;SDS011;61691;53.072;6.582;2023-04-09T00:07:36;56.25;;;36.95;;
73456;SDS011;61691;53.072;6.582;2023-04-09T00:10:02;54.92;;;35.15;;
73456;SDS011;61691;53.072;6.582;2023-04-09T00:12:29;52.75;;;35.22;;
73456;SDS011;61691;53.072;6.582;2023-04-09T00:14:56;56.22;;;34.65;;
73456;SDS011;61691;53.072;6.582;2023-04-09T00:17:23;52.95;;;35.00;;
73456;SDS011;61691;53.072;6.582;2023-04-09T00:19:50;51.47;;;34.13;;
73456;SDS011;61691;53.072;6.582;2023-04-09T00:22:16;56.70;;;35.53;;
73456;SDS011;61691;53.072;6.582;2023-04-09T00:24:43;52.28;;;32.50;;
73456;SDS011;61691;53.072;6.582;2023-04-09T00:27:10;52.15;;;35.42;;
73456;SDS011;61691;53.072;6.582;2023-04-09T00:29:37;55.28;;;34.47;;
73456;SDS011;61691;53.072;6.582;2023-04-09T00:32:03;60.67;;;37.33;;
73456;SDS011;61691;53.072;6.582;2023-04-09T00:34:30;51.63;;;33.15;;
73456;SDS011;61691;53.072;6.582;2023-04-09T00:36:58;51.38;;;33.20;;
73456;SDS011;61691;53.072;6.582;2023-04-09T00:39:24;57.35;;;34.35;;
73456;SDS011;61691;53.072;6.582;2023-04-09T00:41:58;48.15;;;31.75;;
73456;SDS011;61691;53.072;6.582;2023-04-09T00:44:27;51.00;;;32.55;;
73456;SDS011;61691;53.072;6.582;2023-04-09T00:46:54;50.13;;;33.28;;
73456;SDS011;61691;53.072;6.582;2023-04-09T00:49:21;48.40;;;31.10;;
73456;SDS011;61691;53.072;6.582;2023-04-09T00:51:50;46.63;;;28.92;;
73456;SDS011;61691;53.072;6.582;2023-04-09T00:54:18;35.17;;;19.65;;
73456;SDS011;61691;53.072;6.582;2023-04-09T00:56:44;36.42;;;21.40;;
73456;SDS011;61691;53.072;6.582;2023-04-09T00:59:12;38.20;;;24.23;;
73456;SDS011;61691;53.072;6.582;2023-04-09T01:01:39;37.55;;;22.23;;
73456;SDS011;61691;53.072;6.582;2023-04-09T01:04:05;39.60;;;22.73;;
73456;SDS011;61691;53.072;6.582;2023-04-09T01:06:38;41.53;;;25.05;;
73456;SDS011;61691;53.072;6.582;2023-04-09T01:09:56;43.08;;;24.95;;
73456;SDS011;61691;53.072;6.582;2023-04-09T01:15:00;40.10;;;25.08;;
73456;SDS011;61691;53.072;6.582;2023-04-09T01:20:13;39.08;;;23.27;;
73456;SDS011;61691;53.072;6.582;2023-04-09T01:28:42;36.97;;;21.42;;
73456;SDS011;61691;53.072;6.582;2023-04-09T01:31:14;37.42;;;22.40;;
73456;SDS011;61691;53.072;6.582;2023-04-09T01:33:43;39.67;;;23.08;;
73456;SDS011;61691;53.072;6.582;2023-04-09T01:36:11;37.97;;;22.58;;
73456;SDS011;61691;53.072;6.582;2023-04-09T01:38:40;36.10;;;22.23;;
73456;SDS011;61691;53.072;6.582;2023-04-09T01:41:08;46.10;;;24.00;;
73456;SDS011;61691;53.072;6.582;2023-04-09T01:43:37;36.90;;;22.88;;
73456;SDS011;61691;53.072;6.582;2023-04-09T01:46:05;37.38;;;21.75;;
73456;SDS011;61691;53.072;6.582;2023-04-09T01:48:32;37.03;;;22.27;;
73456;SDS011;61691;53.072;6.582;2023-04-09T01:50:59;38.58;;;23.27;;
73456;SDS011;61691;53.072;6.582;2023-04-09T01:53:26;37.25;;;22.60;;
73456;SDS011;61691;53.072;6.582;2023-04-09T01:55:54;35.65;;;22.38;;
73456;SDS011;61691;53.072;6.582;2023-04-09T01:58:22;38.00;;;22.42;;
73456;SDS011;61691;53.072;6.582;2023-04-09T02:00:50;37.00;;;22.08;;
73456;SDS011;61691;53.072;6.582;2023-04-09T02:03:22;36.38;;;21.70;;
73456;SDS011;61691;53.072;6.582;2023-04-09T02:05:55;35.92;;;21.08;;
73456;SDS011;61691;53.072;6.582;2023-04-09T02:08:34;36.75;;;21.00;;
73456;SDS011;61691;53.072;6.582;2023-04-09T02:11:03;36.45;;;21.65;;
73456;SDS011;61691;53.072;6.582;2023-04-09T02:13:31;36.08;;;22.25;;
73456;SDS011;61691;53.072;6.582;2023-04-09T02:16:00;37.80;;;22.33;;
73456;SDS011;61691;53.072;6.582;2023-04-09T02:18:29;38.92;;;21.75;;
73456;SDS011;61691;53.072;6.582;2023-04-09T02:20:56;34.53;;;20.23;;
73456;SDS011;61691;53.072;6.582;2023-04-09T02:23:24;36.85;;;21.63;;
73456;SDS011;61691;53.072;6.582;2023-04-09T02:25:52;38.30;;;22.27;;
73456;SDS011;61691;53.072;6.582;2023-04-09T02:28:19;38.35;;;22.38;;
73456;SDS011;61691;53.072;6.582;2023-04-09T02:30:46;38.20;;;23.30;;
73456;SDS011;61691;53.072;6.582;2023-04-09T02:33:13;37.92;;;22.50;;
73456;SDS011;61691;53.072;6.582;2023-04-09T02:35:39;38.40;;;22.73;;
73456;SDS011;61691;53.072;6.582;2023-04-09T02:38:08;38.42;;;22.65;;
73456;SDS011;61691;53.072;6.582;2023-04-09T02:40:39;34.65;;;20.77;;
73456;SDS011;61691;53.072;6.582;2023-04-09T02:43:07;37.85;;;22.02;;
73456;SDS011;61691;53.072;6.582;2023-04-09T02:45:34;38.25;;;22.15;;
73456;SDS011;61691;53.072;6.582;2023-04-09T02:48:01;37.58;;;22.67;;
73456;SDS011;61691;53.072;6.582;2023-04-09T02:50:28;37.10;;;22.83;;
73456;SDS011;61691;53.072;6.582;2023-04-09T02:52:55;36.28;;;21.38;;
73456;SDS011;61691;53.072;6.582;2023-04-09T02:55:25;37.88;;;21.13;;
73456;SDS011;61691;53.072;6.582;2023-04-09T02:57:51;38.38;;;22.08;;
73456;SDS011;61691;53.072;6.582;2023-04-09T03:00:18;39.38;;;23.90;;
73456;SDS011;61691;53.072;6.582;2023-04-09T03:02:45;37.42;;;22.60;;
73456;SDS011;61691;53.072;6.582;2023-04-09T03:05:11;37.30;;;22.05;;
73456;SDS011;61691;53.072;6.582;2023-04-09T03:07:38;36.75;;;22.25;;
73456;SDS011;61691;53.072;6.582;2023-04-09T03:10:05;43.60;;;23.88;;
73456;SDS011;61691;53.072;6.582;2023-04-09T03:12:32;40.63;;;24.65;;
73456;SDS011;61691;53.072;6.582;2023-04-09T03:14:59;38.35;;;22.90;;
73456;SDS011;61691;53.072;6.582;2023-04-09T03:17:25;36.15;;;22.10;;
73456;SDS011;61691;53.072;6.582;2023-04-09T03:19:52;40.17;;;23.92;;
73456;SDS011;61691;53.072;6.582;2023-04-09T03:22:19;37.85;;;22.67;;
73456;SDS011;61691;53.072;6.582;2023-04-09T03:24:46;42.30;;;23.20;;
73456;SDS011;61691;53.072;6.582;2023-04-09T03:27:12;37.10;;;22.63;;
73456;SDS011;61691;53.072;6.582;2023-04-09T03:29:39;41.05;;;23.20;;
73456;SDS011;61691;53.072;6.582;2023-04-09T03:32:06;38.65;;;23.98;;
73456;SDS011;61691;53.072;6.582;2023-04-09T03:34:32;37.75;;;22.42;;
73456;SDS011;61691;53.072;6.582;2023-04-09T03:36:59;38.38;;;22.50;;
73456;SDS011;61691;53.072;6.582;2023-04-09T03:39:25;38.03;;;23.40;;
73456;SDS011;61691;53.072;6.582;2023-04-09T03:41:56;38.63;;;22.80;;
73456;SDS011;61691;53.072;6.582;2023-04-09T03:44:24;35.90;;;21.52;;
73456;SDS011;61691;53.072;6.582;2023-04-09T03:46:50;38.33;;;23.40;;
73456;SDS011;61691;53.072;6.582;2023-04-09T03:49:17;39.25;;;22.90;;
73456;SDS011;61691;53.072;6.582;2023-04-09T03:51:44;38.08;;;23.50;;
73456;SDS011;61691;53.072;6.582;2023-04-09T03:54:11;40.10;;;24.42;;
73456;SDS011;61691;53.072;6.582;2023-04-09T03:56:37;42.58;;;24.10;;
73456;SDS011;61691;53.072;6.582;2023-04-09T03:59:04;39.60;;;24.92;;
73456;SDS011;61691;53.072;6.582;2023-04-09T04:01:31;38.53;;;23.95;;
73456;SDS011;61691;53.072;6.582;2023-04-09T04:03:58;39.30;;;23.45;;
73456;SDS011;61691;53.072;6.582;2023-04-09T04:06:25;36.60;;;23.63;;
73456;SDS011;61691;53.072;6.582;2023-04-09T04:08:53;39.13;;;22.70;;
73456;SDS011;61691;53.072;6.582;2023-04-09T04:11:19;36.85;;;22.80;;
73456;SDS011;61691;53.072;6.582;2023-04-09T04:13:46;41.78;;;24.63;;
73456;SDS011;61691;53.072;6.582;2023-04-09T04:16:13;41.22;;;24.42;;
73456;SDS011;61691;53.072;6.582;2023-04-09T04:18:40;41.25;;;24.73;;
73456;SDS011;61691;53.072;6.582;2023-04-09T04:21:11;41.35;;;24.20;;
73456;SDS011;61691;53.072;6.582;2023-04-09T04:23:38;41.78;;;24.48;;
73456;SDS011;61691;53.072;6.582;2023-04-09T04:26:06;39.17;;;24.13;;
73456;SDS011;61691;53.072;6.582;2023-04-09T04:31:06;38.58;;;24.30;;
73456;SDS011;61691;53.072;6.582;2023-04-09T04:33:37;39.40;;;23.45;;
73456;SDS011;61691;53.072;6.582;2023-04-09T04:36:09;39.63;;;24.23;;
73456;SDS011;61691;53.072;6.582;2023-04-09T04:38:38;38.75;;;23.30;;
73456;SDS011;61691;53.072;6.582;2023-04-09T04:41:06;38.33;;;23.88;;
73456;SDS011;61691;53.072;6.582;2023-04-09T04:43:33;37.78;;;22.90;;
73456;SDS011;61691;53.072;6.582;2023-04-09T04:46:00;39.83;;;23.52;;
73456;SDS011;61691;53.072;6.582;2023-04-09T04:48:27;43.03;;;24.45;;
73456;SDS011;61691;53.072;6.582;2023-04-09T04:50:54;41.88;;;25.83;;
73456;SDS011;61691;53.072;6.582;2023-04-09T04:53:25;43.88;;;24.88;;
73456;SDS011;61691;53.072;6.582;2023-04-09T04:55:52;40.78;;;24.25;;
73456;SDS011;61691;53.072;6.582;2023-04-09T04:58:19;39.63;;;23.52;;
73456;SDS011;61691;53.072;6.582;2023-04-09T05:00:46;42.35;;;23.77;;
73456;SDS011;61691;53.072;6.582;2023-04-09T05:03:13;38.33;;;22.27;;
73456;SDS011;61691;53.072;6.582;2023-04-09T05:05:40;38.92;;;25.33;;
73456;SDS011;61691;53.072;6.582;2023-04-09T05:08:07;40.55;;;23.13;;
73456;SDS011;61691;53.072;6.582;2023-04-09T05:10:33;37.83;;;23.25;;
73456;SDS011;61691;53.072;6.582;2023-04-09T05:13:00;40.45;;;24.00;;
73456;SDS011;61691;53.072;6.582;2023-04-09T05:15:27;40.67;;;23.80;;
73456;SDS011;61691;53.072;6.582;2023-04-09T05:17:54;40.60;;;24.38;;
73456;SDS011;61691;53.072;6.582;2023-04-09T05:20:21;41.45;;;25.65;;
73456;SDS011;61691;53.072;6.582;2023-04-09T05:22:47;39.67;;;24.52;;
73456;SDS011;61691;53.072;6.582;2023-04-09T05:25:14;42.80;;;25.58;;
73456;SDS011;61691;53.072;6.582;2023-04-09T05:27:41;42.40;;;24.48;;
73456;SDS011;61691;53.072;6.582;2023-04-09T05:30:08;38.45;;;23.77;;
73456;SDS011;61691;53.072;6.582;2023-04-09T05:32:35;39.53;;;23.55;;
73456;SDS011;61691;53.072;6.582;2023-04-09T05:35:03;38.58;;;22.38;;
73456;SDS011;61691;53.072;6.582;2023-04-09T05:37:30;36.30;;;21.42;;
73456;SDS011;61691;53.072;6.582;2023-04-09T05:39:57;39.03;;;22.73;;
73456;SDS011;61691;53.072;6.582;2023-04-09T05:42:23;37.95;;;22.75;;
73456;SDS011;61691;53.072;6.582;2023-04-09T05:44:50;38.85;;;23.50;;
73456;SDS011;61691;53.072;6.582;2023-04-09T05:47:17;34.58;;;21.00;;
73456;SDS011;61691;53.072;6.582;2023-04-09T05:49:43;38.50;;;22.95;;
73456;SDS011;61691;53.072;6.582;2023-04-09T05:52:10;38.22;;;21.25;;
73456;SDS011;61691;53.072;6.582;2023-04-09T05:54:37;35.88;;;21.38;;
73456;SDS011;61691;53.072;6.582;2023-04-09T05:57:03;36.75;;;21.23;;
73456;SDS011;61691;53.072;6.582;2023-04-09T05:59:30;37.40;;;22.02;;
73456;SDS011;61691;53.072;6.582;2023-04-09T06:01:57;36.40;;;21.00;;
73456;SDS011;61691;53.072;6.582;2023-04-09T06:04:23;35.88;;;21.10;;
73456;SDS011;61691;53.072;6.582;2023-04-09T06:06:50;35.88;;;21.70;;
73456;SDS011;61691;53.072;6.582;2023-04-09T06:09:17;35.75;;;22.05;;
73456;SDS011;61691;53.072;6.582;2023-04-09T06:11:44;36.97;;;21.33;;
73456;SDS011;61691;53.072;6.582;2023-04-09T06:14:11;34.08;;;20.52;;
73456;SDS011;61691;53.072;6.582;2023-04-09T06:16:41;37.65;;;21.95;;
73456;SDS011;61691;53.072;6.582;2023-04-09T06:19:08;35.92;;;22.40;;
73456;SDS011;61691;53.072;6.582;2023-04-09T06:21:35;37.67;;;22.05;;
73456;SDS011;61691;53.072;6.582;2023-04-09T06:24:01;35.28;;;21.13;;
73456;SDS011;61691;53.072;6.582;2023-04-09T06:26:28;36.47;;;21.60;;
73456;SDS011;61691;53.072;6.582;2023-04-09T06:28:55;35.38;;;21.70;;
73456;SDS011;61691;53.072;6.582;2023-04-09T06:31:21;37.88;;;22.60;;
73456;SDS011;61691;53.072;6.582;2023-04-09T06:33:48;35.20;;;21.58;;
73456;SDS011;61691;53.072;6.582;2023-04-09T06:36:15;33.47;;;19.67;;
73456;SDS011;61691;53.072;6.582;2023-04-09T06:38:42;33.65;;;20.63;;
73456;SDS011;61691;53.072;6.582;2023-04-09T06:41:09;37.05;;;20.75;;
73456;SDS011;61691;53.072;6.582;2023-04-09T06:43:38;31.15;;;18.60;;
73456;SDS011;61691;53.072;6.582;2023-04-09T06:46:04;35.05;;;20.52;;
73456;SDS011;61691;53.072;6.582;2023-04-09T06:48:31;33.28;;;18.88;;
73456;SDS011;61691;53.072;6.582;2023-04-09T06:50:58;34.85;;;20.75;;
73456;SDS011;61691;53.072;6.582;2023-04-09T06:53:24;33.55;;;19.02;;
73456;SDS011;61691;53.072;6.582;2023-04-09T06:55:51;33.15;;;19.13;;
73456;SDS011;61691;53.072;6.582;2023-04-09T06:58:20;31.80;;;19.42;;
73456;SDS011;61691;53.072;6.582;2023-04-09T07:00:47;34.78;;;20.17;;
73456;SDS011;61691;53.072;6.582;2023-04-09T07:03:14;33.58;;;20.02;;
73456;SDS011;61691;53.072;6.582;2023-04-09T07:05:41;34.90;;;20.60;;
73456;SDS011;61691;53.072;6.582;2023-04-09T07:08:07;34.88;;;20.63;;
73456;SDS011;61691;53.072;6.582;2023-04-09T07:10:34;34.83;;;21.00;;
73456;SDS011;61691;53.072;6.582;2023-04-09T07:13:01;35.08;;;21.70;;
73456;SDS011;61691;53.072;6.582;2023-04-09T07:15:28;35.53;;;22.92;;
73456;SDS011;61691;53.072;6.582;2023-04-09T07:17:55;37.88;;;22.77;;
73456;SDS011;61691;53.072;6.582;2023-04-09T07:20:23;38.13;;;22.88;;
73456;SDS011;61691;53.072;6.582;2023-04-09T07:22:49;37.80;;;23.20;;
73456;SDS011;61691;53.072;6.582;2023-04-09T07:25:16;37.70;;;23.58;;
73456;SDS011;61691;53.072;6.582;2023-04-09T07:27:43;37.95;;;23.20;;
73456;SDS011;61691;53.072;6.582;2023-04-09T07:30:10;39.00;;;23.95;;
73456;SDS011;61691;53.072;6.582;2023-04-09T07:32:36;39.70;;;24.42;;
73456;SDS011;61691;53.072;6.582;2023-04-09T07:35:05;37.70;;;23.95;;
73456;SDS011;61691;53.072;6.582;2023-04-09T07:37:33;39.50;;;24.65;;
73456;SDS011;61691;53.072;6.582;2023-04-09T07:39:59;39.17;;;24.45;;
73456;SDS011;61691;53.072;6.582;2023-04-09T07:42:27;39.47;;;24.60;;
73456;SDS011;61691;53.072;6.582;2023-04-09T07:44:53;39.40;;;24.52;;
73456;SDS011;61691;53.072;6.582;2023-04-09T07:47:21;41.25;;;24.52;;
73456;SDS011;61691;53.072;6.582;2023-04-09T07:49:48;40.67;;;25.45;;
73456;SDS011;61691;53.072;6.582;2023-04-09T07:52:15;40.00;;;25.05;;
73456;SDS011;61691;53.072;6.582;2023-04-09T07:54:42;37.63;;;23.02;;
73456;SDS011;61691;53.072;6.582;2023-04-09T07:57:09;41.83;;;24.85;;
73456;SDS011;61691;53.072;6.582;2023-04-09T07:59:36;39.33;;;24.52;;
73456;SDS011;61691;53.072;6.582;2023-04-09T08:02:02;41.38;;;25.90;;
73456;SDS011;61691;53.072;6.582;2023-04-09T08:04:30;40.38;;;24.40;;
73456;SDS011;61691;53.072;6.582;2023-04-09T08:06:57;39.65;;;24.80;;
73456;SDS011;61691;53.072;6.582;2023-04-09T08:09:23;38.50;;;24.15;;
73456;SDS011;61691;53.072;6.582;2023-04-09T08:11:50;39.13;;;24.17;;
73456;SDS011;61691;53.072;6.582;2023-04-09T08:14:17;37.20;;;23.42;;
73456;SDS011;61691;53.072;6.582;2023-04-09T08:16:45;36.13;;;22.33;;
73456;SDS011;61691;53.072;6.582;2023-04-09T08:19:13;37.58;;;23.08;;
73456;SDS011;61691;53.072;6.582;2023-04-09T08:21:41;36.30;;;22.77;;
73456;SDS011;61691;53.072;6.582;2023-04-09T08:24:11;39.33;;;22.50;;
73456;SDS011;61691;53.072;6.582;2023-04-09T08:26:38;38.47;;;23.57;;
73456;SDS011;61691;53.072;6.582;2023-04-09T08:29:07;37.80;;;23.30;;
73456;SDS011;61691;53.072;6.582;2023-04-09T08:31:34;35.22;;;22.92;;
73456;SDS011;61691;53.072;6.582;2023-04-09T08:34:04;36.00;;;22.65;;
73456;SDS011;61691;53.072;6.582;2023-04-09T08:36:31;33.55;;;21.42;;
73456;SDS011;61691;53.072;6.582;2023-04-09T08:39:00;34.85;;;21.55;;
73456;SDS011;61691;53.072;6.582;2023-04-09T08:41:28;37.00;;;23.10;;
73456;SDS011;61691;53.072;6.582;2023-04-09T08:43:55;35.50;;;22.83;;
73456;SDS011;61691;53.072;6.582;2023-04-09T08:46:25;39.03;;;23.90;;
73456;SDS011;61691;53.072;6.582;2023-04-09T08:48:52;36.53;;;22.15;;
73456;SDS011;61691;53.072;6.582;2023-04-09T08:51:21;35.50;;;22.83;;
73456;SDS011;61691;53.072;6.582;2023-04-09T08:53:56;36.25;;;23.10;;
73456;SDS011;61691;53.072;6.582;2023-04-09T08:56:30;35.10;;;21.52;;
73456;SDS011;61691;53.072;6.582;2023-04-09T08:58:57;36.20;;;23.52;;
73456;SDS011;61691;53.072;6.582;2023-04-09T09:01:25;41.95;;;23.42;;
73456;SDS011;61691;53.072;6.582;2023-04-09T09:06:32;37.25;;;22.88;;
73456;SDS011;61691;53.072;6.582;2023-04-09T09:11:32;34.45;;;20.58;;
73456;SDS011;61691;53.072;6.582;2023-04-09T09:14:00;34.97;;;20.70;;
73456;SDS011;61691;53.072;6.582;2023-04-09T09:16:35;33.78;;;20.42;;
73456;SDS011;61691;53.072;6.582;2023-04-09T09:19:05;35.85;;;21.85;;
73456;SDS011;61691;53.072;6.582;2023-04-09T09:21:32;33.97;;;20.88;;
73456;SDS011;61691;53.072;6.582;2023-04-09T09:24:00;35.63;;;20.45;;
73456;SDS011;61691;53.072;6.582;2023-04-09T09:26:27;36.60;;;21.63;;
73456;SDS011;61691;53.072;6.582;2023-04-09T09:28:56;35.20;;;20.90;;
73456;SDS011;61691;53.072;6.582;2023-04-09T09:31:26;35.53;;;22.35;;
73456;SDS011;61691;53.072;6.582;2023-04-09T09:33:53;34.95;;;21.38;;
73456;SDS011;61691;53.072;6.582;2023-04-09T09:36:33;35.63;;;21.95;;
73456;SDS011;61691;53.072;6.582;2023-04-09T09:41:30;34.05;;;21.02;;
73456;SDS011;61691;53.072;6.582;2023-04-09T09:43:57;33.65;;;19.83;;
73456;SDS011;61691;53.072;6.582;2023-04-09T09:46:24;36.10;;;21.73;;
73456;SDS011;61691;53.072;6.582;2023-04-09T09:48:51;34.67;;;21.48;;
73456;SDS011;61691;53.072;6.582;2023-04-09T09:51:20;34.05;;;20.83;;
73456;SDS011;61691;53.072;6.582;2023-04-09T09:53:51;35.78;;;21.17;;
73456;SDS011;61691;53.072;6.582;2023-04-09T09:59:04;36.22;;;22.00;;
73456;SDS011;61691;53.072;6.582;2023-04-09T10:01:33;32.55;;;20.92;;
73456;SDS011;61691;53.072;6.582;2023-04-09T10:04:03;34.28;;;21.35;;
73456;SDS011;61691;53.072;6.582;2023-04-09T10:06:31;38.33;;;23.40;;
73456;SDS011;61691;53.072;6.582;2023-04-09T10:09:04;36.25;;;23.50;;
73456;SDS011;61691;53.072;6.582;2023-04-09T10:11:32;37.17;;;21.80;;
73456;SDS011;61691;53.072;6.582;2023-04-09T10:14:02;34.75;;;21.90;;
73456;SDS011;61691;53.072;6.582;2023-04-09T10:16:30;34.70;;;20.63;;
73456;SDS011;61691;53.072;6.582;2023-04-09T10:18:58;35.13;;;20.58;;
73456;SDS011;61691;53.072;6.582;2023-04-09T10:24:05;34.15;;;21.70;;
73456;SDS011;61691;53.072;6.582;2023-04-09T10:26:34;34.33;;;20.77;;
73456;SDS011;61691;53.072;6.582;2023-04-09T10:29:06;32.83;;;19.90;;
73456;SDS011;61691;53.072;6.582;2023-04-09T10:31:54;35.20;;;21.70;;
73456;SDS011;61691;53.072;6.582;2023-04-09T10:34:33;32.75;;;21.13;;
73456;SDS011;61691;53.072;6.582;2023-04-09T10:37:01;32.78;;;20.83;;
73456;SDS011;61691;53.072;6.582;2023-04-09T10:39:31;32.95;;;20.15;;
73456;SDS011;61691;53.072;6.582;2023-04-09T10:42:07;34.50;;;21.50;;
73456;SDS011;61691;53.072;6.582;2023-04-09T10:44:39;33.65;;;19.17;;
73456;SDS011;61691;53.072;6.582;2023-04-09T10:47:07;30.60;;;18.05;;
73456;SDS011;61691;53.072;6.582;2023-04-09T10:49:35;32.30;;;19.48;;
73456;SDS011;61691;53.072;6.582;2023-04-09T10:52:07;30.63;;;19.02;;
73456;SDS011;61691;53.072;6.582;2023-04-09T10:54:44;31.52;;;19.20;;
73456;SDS011;61691;53.072;6.582;2023-04-09T10:57:12;33.63;;;20.52;;
73456;SDS011;61691;53.072;6.582;2023-04-09T10:59:44;33.35;;;20.55;;
73456;SDS011;61691;53.072;6.582;2023-04-09T11:03:18;34.22;;;19.63;;
73456;SDS011;61691;53.072;6.582;2023-04-09T11:05:36;32.28;;;19.27;;
73456;SDS011;61691;53.072;6.582;2023-04-09T11:10:35;30.67;;;18.52;;
73456;SDS011;61691;53.072;6.582;2023-04-09T11:13:03;29.95;;;18.52;;
73456;SDS011;61691;53.072;6.582;2023-04-09T11:15:31;30.63;;;17.85;;
73456;SDS011;61691;53.072;6.582;2023-04-09T11:17:59;30.35;;;18.33;;
73456;SDS011;61691;53.072;6.582;2023-04-09T11:20:27;30.00;;;17.83;;
73456;SDS011;61691;53.072;6.582;2023-04-09T11:22:56;29.00;;;16.65;;
73456;SDS011;61691;53.072;6.582;2023-04-09T11:25:25;29.73;;;16.73;;
73456;SDS011;61691;53.072;6.582;2023-04-09T11:27:53;29.50;;;17.58;;
73456;SDS011;61691;53.072;6.582;2023-04-09T11:30:20;30.92;;;18.10;;
73456;SDS011;61691;53.072;6.582;2023-04-09T11:32:47;30.42;;;18.60;;
73456;SDS011;61691;53.072;6.582;2023-04-09T11:35:18;31.75;;;18.02;;
73456;SDS011;61691;53.072;6.582;2023-04-09T11:37:47;32.65;;;17.92;;
73456;SDS011;61691;53.072;6.582;2023-04-09T11:40:16;28.38;;;17.20;;
73456;SDS011;61691;53.072;6.582;2023-04-09T11:42:44;30.40;;;18.13;;
73456;SDS011;61691;53.072;6.582;2023-04-09T11:45:13;28.20;;;17.13;;
73456;SDS011;61691;53.072;6.582;2023-04-09T11:47:41;30.27;;;18.30;;
73456;SDS011;61691;53.072;6.582;2023-04-09T11:50:09;29.65;;;17.65;;
73456;SDS011;61691;53.072;6.582;2023-04-09T11:52:37;29.77;;;17.90;;
73456;SDS011;61691;53.072;6.582;2023-04-09T11:55:05;29.00;;;17.13;;
73456;SDS011;61691;53.072;6.582;2023-04-09T11:57:40;28.88;;;17.45;;
73456;SDS011;61691;53.072;6.582;2023-04-09T12:00:13;28.90;;;17.35;;
73456;SDS011;61691;53.072;6.582;2023-04-09T12:02:48;30.10;;;18.42;;
73456;SDS011;61691;53.072;6.582;2023-04-09T12:05:27;28.83;;;17.20;;
73456;SDS011;61691;53.072;6.582;2023-04-09T12:07:58;28.00;;;16.65;;
73456;SDS011;61691;53.072;6.582;2023-04-09T12:10:34;28.48;;;16.75;;
73456;SDS011;61691;53.072;6.582;2023-04-09T12:13:05;29.58;;;17.27;;
73456;SDS011;61691;53.072;6.582;2023-04-09T12:15:36;28.63;;;16.30;;
73456;SDS011;61691;53.072;6.582;2023-04-09T12:18:06;28.00;;;15.70;;
73456;SDS011;61691;53.072;6.582;2023-04-09T12:23:02;27.20;;;15.77;;
73456;SDS011;61691;53.072;6.582;2023-04-09T12:25:31;26.60;;;14.48;;
73456;SDS011;61691;53.072;6.582;2023-04-09T12:27:59;28.50;;;15.70;;
73456;SDS011;61691;53.072;6.582;2023-04-09T12:30:25;27.83;;;15.75;;
73456;SDS011;61691;53.072;6.582;2023-04-09T12:32:53;28.35;;;15.77;;
73456;SDS011;61691;53.072;6.582;2023-04-09T12:35:21;27.58;;;16.50;;
73456;SDS011;61691;53.072;6.582;2023-04-09T12:37:48;28.02;;;16.10;;
73456;SDS011;61691;53.072;6.582;2023-04-09T12:40:16;27.45;;;15.65;;
73456;SDS011;61691;53.072;6.582;2023-04-09T12:42:44;27.67;;;16.02;;
73456;SDS011;61691;53.072;6.582;2023-04-09T12:45:12;27.85;;;16.00;;
73456;SDS011;61691;53.072;6.582;2023-04-09T12:47:42;28.15;;;16.20;;
73456;SDS011;61691;53.072;6.582;2023-04-09T12:50:09;27.25;;;15.75;;
73456;SDS011;61691;53.072;6.582;2023-04-09T12:52:37;27.42;;;15.98;;
73456;SDS011;61691;53.072;6.582;2023-04-09T12:55:04;27.52;;;16.27;;
73456;SDS011;61691;53.072;6.582;2023-04-09T12:57:31;28.15;;;16.60;;
73456;SDS011;61691;53.072;6.582;2023-04-09T12:59:58;26.77;;;15.32;;
73456;SDS011;61691;53.072;6.582;2023-04-09T13:02:25;27.15;;;14.73;;
73456;SDS011;61691;53.072;6.582;2023-04-09T13:04:52;25.05;;;14.30;;
73456;SDS011;61691;53.072;6.582;2023-04-09T13:07:19;25.75;;;14.55;;
73456;SDS011;61691;53.072;6.582;2023-04-09T13:09:46;24.90;;;13.52;;
73456;SDS011;61691;53.072;6.582;2023-04-09T13:12:16;25.15;;;13.68;;
73456;SDS011;61691;53.072;6.582;2023-04-09T13:14:44;25.85;;;14.30;;
73456;SDS011;61691;53.072;6.582;2023-04-09T13:17:11;26.65;;;14.82;;
73456;SDS011;61691;53.072;6.582;2023-04-09T13:19:38;25.98;;;14.27;;
73456;SDS011;61691;53.072;6.582;2023-04-09T13:22:08;25.15;;;13.73;;
73456;SDS011;61691;53.072;6.582;2023-04-09T13:24:34;26.27;;;15.30;;
73456;SDS011;61691;53.072;6.582;2023-04-09T13:27:03;25.70;;;14.15;;
73456;SDS011;61691;53.072;6.582;2023-04-09T13:29:31;24.98;;;13.63;;
73456;SDS011;61691;53.072;6.582;2023-04-09T13:31:58;25.25;;;13.77;;
73456;SDS011;61691;53.072;6.582;2023-04-09T13:34:27;25.90;;;14.10;;
73456;SDS011;61691;53.072;6.582;2023-04-09T13:36:53;24.48;;;13.52;;
73456;SDS011;61691;53.072;6.582;2023-04-09T13:39:20;26.17;;;15.77;;
73456;SDS011;61691;53.072;6.582;2023-04-09T13:41:47;27.27;;;14.80;;
73456;SDS011;61691;53.072;6.582;2023-04-09T13:44:14;24.70;;;13.25;;
73456;SDS011;61691;53.072;6.582;2023-04-09T13:46:41;27.20;;;14.15;;
73456;SDS011;61691;53.072;6.582;2023-04-09T13:49:08;26.73;;;14.68;;
73456;SDS011;61691;53.072;6.582;2023-04-09T13:51:34;25.83;;;13.57;;
73456;SDS011;61691;53.072;6.582;2023-04-09T13:54:01;24.60;;;13.43;;
73456;SDS011;61691;53.072;6.582;2023-04-09T13:56:31;26.23;;;14.75;;
73456;SDS011;61691;53.072;6.582;2023-04-09T13:58:58;24.98;;;13.10;;
73456;SDS011;61691;53.072;6.582;2023-04-09T14:01:24;24.77;;;13.55;;
73456;SDS011;61691;53.072;6.582;2023-04-09T14:03:53;26.48;;;14.40;;
73456;SDS011;61691;53.072;6.582;2023-04-09T14:06:20;25.38;;;13.27;;
73456;SDS011;61691;53.072;6.582;2023-04-09T14:08:47;24.85;;;12.63;;
73456;SDS011;61691;53.072;6.582;2023-04-09T14:11:14;25.00;;;12.90;;
73456;SDS011;61691;53.072;6.582;2023-04-09T14:13:42;25.20;;;13.30;;
73456;SDS011;61691;53.072;6.582;2023-04-09T14:16:08;24.88;;;13.23;;
73456;SDS011;61691;53.072;6.582;2023-04-09T14:18:35;24.73;;;12.88;;
73456;SDS011;61691;53.072;6.582;2023-04-09T14:21:02;25.25;;;13.27;;
73456;SDS011;61691;53.072;6.582;2023-04-09T14:23:29;23.73;;;12.75;;
73456;SDS011;61691;53.072;6.582;2023-04-09T14:25:56;25.67;;;12.80;;
73456;SDS011;61691;53.072;6.582;2023-04-09T14:28:23;24.13;;;13.27;;
73456;SDS011;61691;53.072;6.582;2023-04-09T14:30:49;23.48;;;12.80;;
73456;SDS011;61691;53.072;6.582;2023-04-09T14:33:17;23.73;;;12.50;;
73456;SDS011;61691;53.072;6.582;2023-04-09T14:35:43;24.95;;;13.10;;
73456;SDS011;61691;53.072;6.582;2023-04-09T14:38:10;23.00;;;12.38;;
73456;SDS011;61691;53.072;6.582;2023-04-09T14:40:37;23.98;;;12.43;;
73456;SDS011;61691;53.072;6.582;2023-04-09T14:43:04;24.95;;;13.15;;
73456;SDS011;61691;53.072;6.582;2023-04-09T14:45:31;25.05;;;13.50;;
73456;SDS011;61691;53.072;6.582;2023-04-09T14:47:58;24.58;;;13.25;;
73456;SDS011;61691;53.072;6.582;2023-04-09T14:50:24;23.92;;;12.25;;
73456;SDS011;61691;53.072;6.582;2023-04-09T14:52:51;24.30;;;12.35;;
73456;SDS011;61691;53.072;6.582;2023-04-09T14:55:18;23.25;;;12.73;;
73456;SDS011;61691;53.072;6.582;2023-04-09T14:57:45;24.15;;;12.93;;